Time;durP1;ratioP1;P1;durP2;ratioP2;P2;SDS_P1;SDS_P2;PMS_P1;PMS_P2;Temp;Humidity;BMP_temperature;BMP_pressure;BME280_temperature;BME280_humidity;BME280_pressure;Samples;Min_cycle;Max_cycle;Signal;HPM_P1;HPM_P2
2022/12/23 00:01:02;;;;;;;5.33;5.00;;;10.30;58.90;;;;;;5009503;28;20180;-73
2022/12/23 00:03:28;;;;;;;6.00;5.60;;;10.30;59.00;;;;;;5009131;28;20172;-73
2022/12/23 00:05:54;;;;;;;5.80;5.40;;;10.30;58.60;;;;;;5009311;28;20495;-73
2022/12/23 00:08:20;;;;;;;5.63;5.40;;;10.30;58.90;;;;;;5008819;28;20607;-73
2022/12/23 00:10:48;;;;;;;6.47;5.90;;;10.30;58.80;;;;;;5008987;28;20177;-73
2022/12/23 00:16:04;;;;;;;5.73;5.43;;;10.30;59.20;;;;;;5009705;28;20414;-74
2022/12/23 00:18:30;;;;;;;4.97;4.77;;;10.30;59.60;;;;;;5008624;28;20424;-74
2022/12/23 00:21:05;;;;;;;4.90;4.70;;;10.30;60.10;;;;;;5008876;28;20485;-74
2022/12/23 00:23:39;;;;;;;4.87;4.67;;;10.30;59.90;;;;;;5009285;28;20545;-74
2022/12/23 00:26:06;;;;;;;5.77;5.33;;;10.30;60.60;;;;;;5012383;28;20407;-74
2022/12/23 00:28:32;;;;;;;5.23;4.90;;;10.30;60.40;;;;;;5013419;28;20807;-74
2022/12/23 00:31:04;;;;;;;5.20;5.00;;;10.30;60.00;;;;;;5013712;28;20466;-74
2022/12/23 00:33:35;;;;;;;4.70;4.50;;;10.30;60.50;;;;;;5013430;28;20238;-74
2022/12/23 00:36:01;;;;;;;4.90;4.50;;;10.30;61.10;;;;;;4995734;28;20433;-74
2022/12/23 00:44:03;;;;;;;5.10;4.70;;;10.40;61.40;;;;;;5013439;28;21015;-73
2022/12/23 00:46:28;;;;;;;4.67;4.47;;;10.40;61.30;;;;;;4995281;28;20758;-74
2022/12/23 00:51:38;;;;;;;4.53;4.30;;;10.40;61.40;;;;;;5013151;28;20180;-74
2022/12/23 00:54:04;;;;;;;5.57;5.17;;;10.50;61.40;;;;;;5012221;28;20503;-74
2022/12/23 00:56:30;;;;;;;5.53;5.20;;;10.50;61.50;;;;;;5013051;28;20260;-74
2022/12/23 00:58:56;;;;;;;5.03;4.83;;;10.50;61.40;;;;;;5011717;28;20575;-74
2022/12/23 01:06:51;;;;;;;4.83;4.63;;;10.60;61.50;;;;;;5012800;28;20454;-74
2022/12/23 01:09:17;;;;;;;4.70;4.50;;;10.50;61.50;;;;;;5011702;28;20934;-74
2022/12/23 01:11:42;;;;;;;4.80;4.60;;;10.50;62.00;;;;;;5012617;28;20208;-74
2022/12/23 01:14:08;;;;;;;4.40;4.30;;;10.60;62.50;;;;;;5012337;28;20228;-74
2022/12/23 01:16:37;;;;;;;4.50;4.30;;;10.60;62.60;;;;;;5012199;28;20165;-74
2022/12/23 01:19:03;;;;;;;4.17;4.07;;;10.60;62.80;;;;;;5012327;28;20193;-74
2022/12/23 01:21:29;;;;;;;4.43;4.30;;;10.60;62.90;;;;;;5012249;28;20431;-74
2022/12/23 01:23:54;;;;;;;4.30;4.10;;;10.70;62.90;;;;;;4994442;28;20552;-74
2022/12/23 01:26:20;;;;;;;4.70;4.50;;;10.70;62.50;;;;;;5012332;28;20185;-74
2022/12/23 01:28:45;;;;;;;4.60;4.40;;;10.70;61.90;;;;;;5012030;28;20212;-74
2022/12/23 01:31:11;;;;;;;4.70;4.60;;;10.80;61.80;;;;;;4994607;28;20173;-74
2022/12/23 01:33:37;;;;;;;5.60;5.20;;;10.80;61.80;;;;;;5012139;28;20170;-74
2022/12/23 01:36:06;;;;;;;5.20;5.00;;;10.80;61.90;;;;;;5011617;28;20189;-74
2022/12/23 01:38:33;;;;;;;4.70;4.60;;;10.90;62.20;;;;;;5010955;28;20210;-74
2022/12/23 01:40:59;;;;;;;4.67;4.57;;;10.90;62.60;;;;;;4994995;28;20419;-74
2022/12/23 01:43:44;;;;;;;4.40;4.20;;;11.00;62.30;;;;;;4996114;28;20612;-74
2022/12/23 01:46:10;;;;;;;4.30;4.20;;;11.00;62.00;;;;;;5013080;28;20424;-74
2022/12/23 01:48:36;;;;;;;4.80;4.60;;;11.00;62.70;;;;;;5012061;28;20544;-74
2022/12/23 01:51:27;;;;;;;4.67;4.47;;;11.00;63.00;;;;;;5012699;28;20173;-74
2022/12/23 01:53:58;;;;;;;4.27;4.17;;;11.00;63.00;;;;;;5008261;28;20420;-73
2022/12/23 01:56:34;;;;;;;3.93;3.80;;;11.00;63.40;;;;;;5019284;28;20451;-74
2022/12/23 01:59:05;;;;;;;4.27;4.10;;;11.10;63.50;;;;;;5006874;28;20928;-74
2022/12/23 02:04:18;;;;;;;3.93;3.80;;;11.10;63.50;;;;;;5037289;28;20473;-74
2022/12/23 02:09:40;;;;;;;4.63;4.43;;;11.10;64.10;;;;;;5036407;28;20498;-73
2022/12/23 02:12:33;;;;;;;4.40;4.30;;;11.10;64.10;;;;;;5036306;28;20416;-74
2022/12/23 02:17:56;;;;;;;4.63;4.53;;;11.20;64.20;;;;;;5036215;28;20400;-73
2022/12/23 02:20:51;;;;;;;4.33;4.23;;;11.30;63.70;;;;;;5035685;28;20393;-74
2022/12/23 02:23:51;;;;;;;4.30;4.20;;;11.40;63.80;;;;;;4949138;28;20804;-74
2022/12/23 02:26:37;;;;;;;4.73;4.53;;;11.40;63.50;;;;;;5036060;28;20400;-74
2022/12/23 02:29:25;;;;;;;4.60;4.50;;;11.40;63.40;;;;;;5034214;28;21031;-75
2022/12/23 02:32:23;;;;;;;4.17;4.07;;;11.40;63.30;;;;;;5034936;28;20392;-75
2022/12/23 02:34:59;;;;;;;4.43;4.33;;;11.40;63.80;;;;;;5033875;28;20451;-74
2022/12/23 02:37:35;;;;;;;4.27;4.10;;;11.50;63.90;;;;;;5032488;28;20424;-74
2022/12/23 02:40:16;;;;;;;4.43;4.33;;;11.50;64.40;;;;;;5035570;28;20440;-74
2022/12/23 02:43:17;;;;;;;4.20;4.10;;;11.50;64.50;;;;;;5035266;28;20427;-75
2022/12/23 02:46:03;;;;;;;3.90;3.80;;;11.50;65.00;;;;;;4994034;28;20439;-73
2022/12/23 02:48:50;;;;;;;3.83;3.73;;;11.70;65.10;;;;;;5016510;28;20467;-73
2022/12/23 02:51:18;;;;;;;4.50;4.40;;;11.70;64.60;;;;;;5013041;28;20442;-74
2022/12/23 02:53:51;;;;;;;4.70;4.57;;;11.70;65.10;;;;;;5013007;28;20917;-75
2022/12/23 02:56:18;;;;;;;4.37;4.27;;;11.70;65.20;;;;;;5013448;28;20419;-74
2022/12/23 02:58:53;;;;;;;4.43;4.33;;;11.70;65.40;;;;;;5011648;28;20494;-74
2022/12/23 03:01:20;;;;;;;4.67;4.47;;;11.70;65.90;;;;;;5017349;28;20423;-74
2022/12/23 03:03:46;;;;;;;4.83;4.70;;;11.70;66.10;;;;;;5033592;28;20421;-74
2022/12/23 03:06:20;;;;;;;4.87;4.67;;;11.70;66.40;;;;;;5027397;28;20423;-74
2022/12/23 03:08:48;;;;;;;4.40;4.30;;;11.80;66.50;;;;;;5010689;28;21242;-74
2022/12/23 03:11:15;;;;;;;4.40;4.30;;;11.80;66.80;;;;;;5010367;28;20502;-73
2022/12/23 03:13:56;;;;;;;4.67;4.57;;;11.80;66.40;;;;;;5010454;28;20418;-73
2022/12/23 03:16:23;;;;;;;4.90;4.70;;;11.90;66.40;;;;;;5009673;28;20423;-74
2022/12/23 03:19:19;;;;;;;4.20;4.10;;;12.00;66.50;;;;;;4992002;28;20925;-74
2022/12/23 03:22:23;;;;;;;4.60;4.50;;;12.10;65.90;;;;;;5009779;28;20675;-74
2022/12/23 03:25:01;;;;;;;4.80;4.70;;;12.20;64.80;;;;;;5008955;28;20473;-74
2022/12/23 03:27:37;;;;;;;5.60;5.40;;;12.30;64.00;;;;;;4992517;28;20517;-74
2022/12/23 03:30:10;;;;;;;5.13;5.03;;;12.20;63.10;;;;;;5009310;28;20497;-74
2022/12/23 03:32:46;;;;;;;5.40;5.30;;;12.30;63.20;;;;;;4991657;28;20795;-74
2022/12/23 03:35:17;;;;;;;5.90;5.70;;;12.30;63.20;;;;;;5009132;28;20408;-74
2022/12/23 03:37:47;;;;;;;6.20;6.10;;;12.40;62.80;;;;;;5009362;28;20800;-74
2022/12/23 03:40:21;;;;;;;6.03;5.93;;;12.40;62.00;;;;;;5009616;28;20498;-74
2022/12/23 03:42:53;;;;;;;6.23;6.13;;;12.50;61.90;;;;;;5009371;28;20422;-74
2022/12/23 03:45:43;;;;;;;6.10;6.00;;;12.50;60.70;;;;;;5009178;28;20968;-74
2022/12/23 03:48:15;;;;;;;6.43;6.30;;;12.30;60.90;;;;;;4991842;28;20542;-74
2022/12/23 03:50:43;;;;;;;6.40;6.20;;;12.10;62.90;;;;;;5008973;28;21163;-74
2022/12/23 03:53:17;;;;;;;6.70;6.40;;;12.10;63.00;;;;;;5009589;28;20408;-75
2022/12/23 03:55:54;;;;;;;6.10;6.00;;;12.00;62.90;;;;;;5009534;28;20499;-75
2022/12/23 03:58:32;;;;;;;6.67;6.47;;;12.10;64.20;;;;;;5008989;28;20432;-73
2022/12/23 04:01:20;;;;;;;6.40;6.10;;;12.20;64.00;;;;;;5008917;28;20566;-74
2022/12/23 04:04:00;;;;;;;6.27;6.00;;;12.20;63.10;;;;;;5008140;28;20424;-74
2022/12/23 04:06:32;;;;;;;6.13;6.03;;;12.00;63.20;;;;;;4990657;28;20424;-74
2022/12/23 04:08:58;;;;;;;6.40;6.30;;;12.00;64.60;;;;;;5008160;28;20486;-74
2022/12/23 04:11:24;;;;;;;6.30;6.10;;;12.00;64.60;;;;;;5008363;28;20411;-73
2022/12/23 04:13:50;;;;;;;7.10;6.53;;;12.00;64.80;;;;;;5015169;28;20424;-74
2022/12/23 04:16:15;;;;;;;6.73;6.53;;;12.00;64.70;;;;;;5018872;28;20430;-74
2022/12/23 04:18:41;;;;;;;6.80;6.60;;;12.10;64.30;;;;;;4995214;28;20202;-74
2022/12/23 04:21:06;;;;;;;6.93;6.73;;;12.10;63.80;;;;;;5008767;28;20208;-73
2022/12/23 04:23:32;;;;;;;7.00;6.80;;;12.10;63.00;;;;;;5008106;28;20554;-74
2022/12/23 04:25:57;;;;;;;6.90;6.70;;;12.20;63.10;;;;;;5010917;28;20177;-74
2022/12/23 04:28:23;;;;;;;6.87;6.67;;;12.20;63.10;;;;;;5011246;28;20286;-73
2022/12/23 04:30:48;;;;;;;7.10;6.90;;;12.20;62.40;;;;;;5011468;28;20176;-73
2022/12/23 04:33:14;;;;;;;7.33;7.13;;;12.20;61.90;;;;;;5010732;28;20188;-74
2022/12/23 04:35:40;;;;;;;7.00;6.80;;;12.30;61.50;;;;;;5012829;28;20184;-75
2022/12/23 04:38:05;;;;;;;6.60;6.40;;;12.30;60.70;;;;;;5012030;28;20231;-74
2022/12/23 04:40:31;;;;;;;7.53;7.23;;;12.30;61.40;;;;;;5013230;28;20189;-73
2022/12/23 04:42:56;;;;;;;7.07;6.87;;;12.40;61.20;;;;;;5012304;28;20216;-73
2022/12/23 04:45:22;;;;;;;7.30;7.10;;;12.50;59.70;;;;;;5012502;28;20232;-74
2022/12/23 04:47:47;;;;;;;7.17;6.97;;;12.50;60.00;;;;;;5010799;28;20213;-75
2022/12/23 04:50:15;;;;;;;7.13;6.93;;;12.60;59.50;;;;;;5010435;28;20465;-74
2022/12/23 04:52:41;;;;;;;7.20;6.80;;;12.80;58.60;;;;;;5008708;28;20177;-74
2022/12/23 04:55:07;;;;;;;7.67;7.47;;;12.90;57.40;;;;;;4990707;28;21228;-74
2022/12/23 04:57:33;;;;;;;7.93;7.73;;;12.90;56.90;;;;;;4991659;28;20413;-74
2022/12/23 04:59:58;;;;;;;7.70;7.50;;;12.80;55.80;;;;;;5008956;28;20439;-75
2022/12/23 05:02:24;;;;;;;7.43;7.23;;;12.80;56.90;;;;;;5008221;28;20181;-74
2022/12/23 05:04:50;;;;;;;7.43;7.23;;;12.90;56.90;;;;;;5009356;28;20178;-74
2022/12/23 05:07:15;;;;;;;8.13;7.93;;;13.00;56.50;;;;;;5009008;28;20201;-74
2022/12/23 05:09:41;;;;;;;8.20;8.00;;;12.90;55.10;;;;;;5008427;28;20213;-73
2022/12/23 05:12:06;;;;;;;8.30;8.10;;;12.90;56.00;;;;;;5007527;28;20173;-73
2022/12/23 05:14:32;;;;;;;7.80;7.50;;;13.00;56.20;;;;;;5011395;28;20256;-73
2022/12/23 05:16:57;;;;;;;8.17;7.97;;;13.00;56.10;;;;;;5012710;28;20178;-73
2022/12/23 05:19:23;;;;;;;8.17;7.97;;;13.10;55.90;;;;;;5012983;28;20233;-73
2022/12/23 05:21:48;;;;;;;8.33;8.13;;;13.10;55.40;;;;;;5012091;28;20209;-73
2022/12/23 05:24:14;;;;;;;8.60;8.40;;;13.10;55.30;;;;;;5012937;28;20178;-73
2022/12/23 05:26:39;;;;;;;8.60;8.40;;;13.10;55.10;;;;;;5013423;28;20170;-73
2022/12/23 05:29:05;;;;;;;9.23;8.50;;;13.20;54.90;;;;;;5012465;28;20213;-73
2022/12/23 05:31:30;;;;;;;8.93;8.73;;;13.20;54.80;;;;;;5013201;28;20189;-72
2022/12/23 05:33:56;;;;;;;9.47;9.17;;;13.20;54.20;;;;;;5013225;28;20217;-72
2022/12/23 05:36:22;;;;;;;8.80;8.60;;;13.20;54.30;;;;;;5013114;28;20830;-72
2022/12/23 05:38:47;;;;;;;9.77;9.47;;;13.30;54.30;;;;;;5013393;28;20204;-73
2022/12/23 05:41:15;;;;;;;9.53;9.23;;;13.20;53.70;;;;;;5014046;28;20178;-73
2022/12/23 05:43:40;;;;;;;9.37;9.07;;;13.00;54.00;;;;;;5013500;28;20714;-74
2022/12/23 05:46:06;;;;;;;9.40;9.10;;;12.90;55.60;;;;;;5013261;28;20499;-74
2022/12/23 05:48:31;;;;;;;9.77;9.47;;;13.00;56.20;;;;;;5013340;28;20270;-74
2022/12/23 05:50:57;;;;;;;8.50;8.30;;;13.00;56.10;;;;;;5013698;28;20260;-74
2022/12/23 05:53:23;;;;;;;8.97;8.77;;;13.00;56.10;;;;;;4996330;28;20178;-73
2022/12/23 05:55:49;;;;;;;8.53;8.33;;;13.10;56.00;;;;;;5013647;28;20170;-72
2022/12/23 05:58:14;;;;;;;9.63;9.33;;;13.10;56.00;;;;;;5013644;28;20970;-72
2022/12/23 06:00:40;;;;;;;9.10;8.90;;;13.10;56.00;;;;;;5014017;28;20180;-74
2022/12/23 06:03:06;;;;;;;8.63;8.43;;;13.10;56.10;;;;;;5013522;28;20187;-75
2022/12/23 06:05:31;;;;;;;9.27;8.97;;;13.20;55.90;;;;;;5012595;28;20192;-73
2022/12/23 06:07:57;;;;;;;9.27;8.97;;;13.20;56.10;;;;;;5032921;28;20291;-74
2022/12/23 06:10:22;;;;;;;8.90;8.70;;;13.20;56.20;;;;;;5008945;28;20186;-74
2022/12/23 06:12:48;;;;;;;9.20;9.00;;;13.30;56.30;;;;;;4993055;28;20174;-73
2022/12/23 06:15:14;;;;;;;9.53;9.23;;;13.30;55.90;;;;;;4976146;28;20551;-75
2022/12/23 06:17:40;;;;;;;8.87;8.67;;;13.40;55.60;;;;;;4994064;28;20259;-76
2022/12/23 06:20:06;;;;;;;9.03;8.83;;;13.40;55.30;;;;;;4994100;28;20510;-76
2022/12/23 06:22:32;;;;;;;9.53;9.23;;;13.40;56.00;;;;;;5001051;28;20263;-75
2022/12/23 06:24:58;;;;;;;9.97;9.67;;;13.40;55.50;;;;;;5012490;28;20424;-75
2022/12/23 06:27:23;;;;;;;10.80;10.30;;;13.40;55.10;;;;;;5013256;28;20672;-75
2022/12/23 06:29:49;;;;;;;9.57;9.27;;;13.40;55.20;;;;;;4995971;28;20189;-76
2022/12/23 06:32:14;;;;;;;9.77;9.47;;;13.40;54.90;;;;;;5012940;28;20170;-76
2022/12/23 06:34:40;;;;;;;10.33;10.03;;;13.30;55.20;;;;;;5021082;28;20181;-75
2022/12/23 06:37:05;;;;;;;11.17;10.10;;;13.40;55.30;;;;;;5020441;28;20647;-76
2022/12/23 06:39:31;;;;;;;10.80;10.40;;;13.30;54.60;;;;;;5026286;28;20193;-75
2022/12/23 06:41:56;;;;;;;10.57;10.27;;;13.40;54.60;;;;;;5012907;28;20252;-76
2022/12/23 06:44:22;;;;;;;10.47;10.17;;;13.30;54.70;;;;;;5013106;28;20648;-76
2022/12/23 06:46:47;;;;;;;10.57;10.17;;;13.30;54.50;;;;;;5013145;28;20218;-76
2022/12/23 06:49:13;;;;;;;10.07;9.77;;;13.30;55.00;;;;;;5013251;28;20244;-77
2022/12/23 06:51:38;;;;;;;10.30;10.00;;;13.30;55.20;;;;;;5013128;28;20235;-78
2022/12/23 06:54:04;;;;;;;9.30;9.00;;;13.30;56.00;;;;;;4995936;28;20181;-77
2022/12/23 06:56:31;;;;;;;10.10;9.80;;;13.30;56.80;;;;;;5013313;28;20195;-76
2022/12/23 06:58:57;;;;;;;9.57;9.27;;;13.30;56.20;;;;;;5012809;28;20686;-77
2022/12/23 07:01:22;;;;;;;11.17;10.37;;;13.30;56.30;;;;;;4995362;28;20424;-77
2022/12/23 07:03:49;;;;;;;10.57;10.23;;;13.30;55.80;;;;;;5013103;28;20226;-77
2022/12/23 07:06:15;;;;;;;10.00;9.70;;;13.30;56.00;;;;;;5013042;28;20213;-77
2022/12/23 07:08:40;;;;;;;10.00;9.60;;;13.30;55.80;;;;;;5012815;28;20510;-77
2022/12/23 07:11:06;;;;;;;9.10;8.70;;;13.30;55.60;;;;;;5012838;28;20185;-77
2022/12/23 07:13:32;;;;;;;9.23;8.83;;;13.30;55.90;;;;;;5012834;28;20177;-77
2022/12/23 07:16:03;;;;;;;9.50;9.20;;;13.30;55.80;;;;;;4995029;28;20643;-76
2022/12/23 07:18:28;;;;;;;10.03;9.73;;;13.40;55.80;;;;;;5012815;28;20444;-76
2022/12/23 07:20:59;;;;;;;9.97;9.57;;;13.30;55.20;;;;;;5013118;28;20531;-76
2022/12/23 07:23:24;;;;;;;10.27;9.87;;;13.30;55.30;;;;;;4995002;28;20432;-77
2022/12/23 07:25:50;;;;;;;10.23;9.73;;;13.40;54.80;;;;;;4995123;28;20437;-76
2022/12/23 07:28:15;;;;;;;10.27;9.87;;;13.30;54.90;;;;;;5012087;28;20214;-77
2022/12/23 07:30:41;;;;;;;11.20;10.70;;;13.30;55.40;;;;;;5012378;28;20173;-77
2022/12/23 07:33:07;;;;;;;11.17;10.77;;;13.30;55.00;;;;;;4994728;28;20260;-76
2022/12/23 07:35:32;;;;;;;11.27;10.67;;;13.30;54.70;;;;;;4994647;28;20177;-77
2022/12/23 07:37:58;;;;;;;11.73;11.03;;;13.30;54.60;;;;;;5019198;28;20205;-76
2022/12/23 07:40:24;;;;;;;11.80;11.27;;;13.30;54.90;;;;;;5032255;28;20180;-76
2022/12/23 07:42:55;;;;;;;10.83;10.43;;;13.30;54.80;;;;;;5020765;28;20294;-75
2022/12/23 07:45:20;;;;;;;11.27;10.77;;;13.30;55.40;;;;;;5022137;28;20790;-76
2022/12/23 07:47:46;;;;;;;11.13;10.37;;;13.30;55.20;;;;;;5031946;28;20462;-76
2022/12/23 07:50:12;;;;;;;11.10;10.63;;;13.30;55.40;;;;;;5017595;28;20698;-76
2022/12/23 07:52:38;;;;;;;10.90;10.40;;;13.30;55.10;;;;;;5020196;28;20576;-75
2022/12/23 07:55:04;;;;;;;11.57;10.63;;;13.30;54.90;;;;;;5014283;28;20412;-78
2022/12/23 07:57:36;;;;;;;10.90;10.40;;;13.30;55.30;;;;;;5032072;28;20311;-76
2022/12/23 08:00:03;;;;;;;10.00;9.60;;;13.40;55.40;;;;;;5014027;28;20569;-77
2022/12/23 08:02:28;;;;;;;11.17;10.60;;;13.30;55.20;;;;;;5013995;28;20423;-75
2022/12/23 08:04:54;;;;;;;12.53;11.43;;;13.40;55.20;;;;;;5031733;28;20415;-76
2022/12/23 08:07:19;;;;;;;11.07;10.67;;;13.40;55.10;;;;;;5031868;28;20187;-76
2022/12/23 08:09:45;;;;;;;11.07;10.50;;;13.40;55.10;;;;;;5031635;28;20674;-75
2022/12/23 08:12:10;;;;;;;12.00;11.30;;;13.40;54.90;;;;;;5031225;28;20187;-77
2022/12/23 08:14:36;;;;;;;11.63;10.70;;;13.40;54.40;;;;;;5031507;28;20187;-75
2022/12/23 08:17:02;;;;;;;12.50;11.70;;;13.40;55.40;;;;;;5014039;28;20180;-75
2022/12/23 08:19:27;;;;;;;11.97;11.30;;;13.40;55.40;;;;;;5031668;28;20204;-77
2022/12/23 08:21:53;;;;;;;12.03;11.07;;;13.40;55.20;;;;;;5031638;28;20168;-77
2022/12/23 08:24:18;;;;;;;11.30;10.80;;;13.40;56.10;;;;;;5028971;28;20541;-77
2022/12/23 08:26:44;;;;;;;11.67;11.10;;;13.40;55.50;;;;;;5021504;28;20192;-76
2022/12/23 08:29:09;;;;;;;9.80;9.50;;;13.40;55.40;;;;;;4993960;28;20221;-76
2022/12/23 08:31:35;;;;;;;11.07;10.57;;;13.40;55.10;;;;;;5011676;28;20185;-74
2022/12/23 08:34:00;;;;;;;10.97;10.47;;;13.50;54.50;;;;;;5012206;28;20177;-75
2022/12/23 08:36:32;;;;;;;9.40;9.10;;;13.50;54.50;;;;;;4994260;28;20181;-73
2022/12/23 08:39:00;;;;;;;10.10;9.70;;;13.40;54.10;;;;;;5011845;28;20197;-74
2022/12/23 08:41:29;;;;;;;10.10;9.80;;;13.40;54.40;;;;;;5016946;28;20486;-74
2022/12/23 08:43:55;;;;;;;10.00;9.50;;;13.40;54.40;;;;;;5025516;28;20423;-76
2022/12/23 08:46:21;;;;;;;9.30;9.00;;;13.40;54.40;;;;;;5015570;28;20423;-75
2022/12/23 08:48:47;;;;;;;9.70;9.40;;;13.50;54.50;;;;;;5035472;28;20499;-75
2022/12/23 08:51:15;;;;;;;9.70;9.30;;;13.40;54.40;;;;;;5034922;28;20447;-75
2022/12/23 08:53:41;;;;;;;10.00;9.70;;;13.40;54.40;;;;;;5034941;28;20184;-75
2022/12/23 08:56:13;;;;;;;9.67;9.33;;;13.30;54.40;;;;;;5035196;28;20415;-73
2022/12/23 08:58:41;;;;;;;9.60;9.20;;;13.40;54.90;;;;;;5017114;28;20439;-75
2022/12/23 09:01:10;;;;;;;10.27;9.97;;;13.40;54.60;;;;;;5021215;28;20421;-74
2022/12/23 09:03:37;;;;;;;10.73;10.33;;;13.30;55.30;;;;;;5022417;28;20436;-75
2022/12/23 09:06:08;;;;;;;10.40;10.00;;;13.40;54.90;;;;;;5022869;28;20457;-74
2022/12/23 09:08:33;;;;;;;10.20;9.70;;;13.40;55.30;;;;;;5009248;28;20468;-73
2022/12/23 09:10:59;;;;;;;9.13;8.90;;;13.40;54.80;;;;;;4988397;28;20408;-75
2022/12/23 09:13:25;;;;;;;9.70;9.40;;;13.40;54.40;;;;;;5018604;28;20423;-74
2022/12/23 09:15:51;;;;;;;11.73;11.23;;;13.40;54.40;;;;;;5026378;28;20231;-75
2022/12/23 09:18:16;;;;;;;10.80;10.40;;;13.40;54.40;;;;;;5010289;28;20440;-75
2022/12/23 09:20:42;;;;;;;10.77;10.07;;;13.50;54.50;;;;;;5019005;28;20186;-74
2022/12/23 09:23:07;;;;;;;11.00;10.33;;;13.50;54.50;;;;;;5022983;28;20652;-74
2022/12/23 09:25:35;;;;;;;10.60;9.90;;;13.50;54.50;;;;;;5014922;28;20181;-74
2022/12/23 09:28:00;;;;;;;10.80;10.30;;;13.50;54.50;;;;;;5014840;28;20691;-74
2022/12/23 09:30:26;;;;;;;10.50;9.90;;;13.60;54.50;;;;;;5018683;28;20463;-74
2022/12/23 09:32:52;;;;;;;10.93;10.43;;;13.60;54.30;;;;;;5022690;28;20178;-74
2022/12/23 09:35:17;;;;;;;9.30;9.00;;;13.60;54.00;;;;;;5004431;28;20188;-75
2022/12/23 09:37:43;;;;;;;25.50;19.63;;;13.60;54.50;;;;;;4996630;28;20173;-75
2022/12/23 09:40:14;;;;;;;9.60;9.20;;;13.70;54.60;;;;;;5014674;28;20743;-74
2022/12/23 09:42:52;;;;;;;22.30;17.63;;;13.70;54.60;;;;;;5014409;28;20256;-75
2022/12/23 09:45:49;;;;;;;11.67;10.90;;;13.70;54.30;;;;;;5014581;28;20918;-75
2022/12/23 09:48:19;;;;;;;9.80;9.40;;;13.80;53.90;;;;;;5013707;28;20466;-75
2022/12/23 09:50:45;;;;;;;9.67;9.27;;;13.70;54.00;;;;;;4996731;28;20898;-75
2022/12/23 09:53:21;;;;;;;10.63;10.17;;;13.70;54.20;;;;;;5013765;28;20511;-75
2022/12/23 09:55:58;;;;;;;9.00;8.70;;;13.60;54.00;;;;;;5008575;28;20444;-75
2022/12/23 09:58:45;;;;;;;10.03;9.60;;;13.60;54.50;;;;;;4994489;28;20432;-75
2022/12/23 10:01:55;;;;;;;9.50;9.20;;;13.60;54.60;;;;;;4994300;28;20424;-75
2022/12/23 10:04:21;;;;;;;9.60;9.20;;;13.60;54.50;;;;;;4915490;29;20901;-74
2022/12/23 10:07:13;;;;;;;9.23;8.90;;;13.60;54.50;;;;;;4978520;28;20445;-75
2022/12/23 10:09:42;;;;;;;9.60;9.10;;;13.60;54.60;;;;;;4994166;28;20214;-75
2022/12/23 10:12:17;;;;;;;9.83;9.43;;;13.60;54.60;;;;;;4994596;28;20801;-75
2022/12/23 10:14:45;;;;;;;9.60;9.30;;;13.60;54.50;;;;;;4994935;28;20432;-74
2022/12/23 10:17:17;;;;;;;9.57;9.27;;;13.60;55.20;;;;;;4994529;28;20406;-75
2022/12/23 10:19:46;;;;;;;9.93;9.53;;;13.60;54.50;;;;;;4994961;28;20429;-74
2022/12/23 10:22:19;;;;;;;9.73;9.37;;;13.60;54.60;;;;;;5028191;28;20410;-75
2022/12/23 10:24:46;;;;;;;9.97;9.47;;;13.60;54.60;;;;;;5029639;28;20555;-75
2022/12/23 10:27:28;;;;;;;9.93;9.63;;;13.60;55.20;;;;;;5014787;28;20448;-77
2022/12/23 10:29:55;;;;;;;9.07;8.57;;;13.70;55.00;;;;;;5020697;28;20416;-76
2022/12/23 10:32:37;;;;;;;9.20;8.90;;;13.70;54.80;;;;;;5004931;28;20409;-76
2022/12/23 10:35:23;;;;;;;9.10;8.80;;;13.70;54.60;;;;;;5033833;28;20419;-76
2022/12/23 10:38:08;;;;;;;9.67;9.27;;;13.70;54.60;;;;;;4985483;28;20411;-75
2022/12/23 10:40:51;;;;;;;9.00;8.70;;;13.70;54.70;;;;;;5019860;28;20420;-74
2022/12/23 10:43:48;;;;;;;8.40;8.00;;;13.80;54.80;;;;;;5018217;28;20416;-74
2022/12/23 10:46:22;;;;;;;8.93;8.63;;;13.80;54.70;;;;;;5015841;28;20492;-74
2022/12/23 10:49:03;;;;;;;9.83;9.33;;;13.80;54.80;;;;;;5013849;28;20592;-75
2022/12/23 10:51:42;;;;;;;8.10;7.90;;;13.80;54.80;;;;;;4995484;28;20467;-75
2022/12/23 10:54:16;;;;;;;8.97;8.67;;;13.80;54.80;;;;;;5013335;28;20405;-75
2022/12/23 10:56:43;;;;;;;9.90;9.50;;;13.70;54.60;;;;;;5013477;28;20818;-75
2022/12/23 10:59:14;;;;;;;9.00;8.67;;;13.70;54.60;;;;;;5012826;28;20429;-76
2022/12/23 11:01:46;;;;;;;8.40;8.13;;;13.50;55.00;;;;;;5014002;28;20848;-75
2022/12/23 11:04:16;;;;;;;8.50;8.20;;;13.50;56.00;;;;;;5013889;28;20408;-75
2022/12/23 11:06:47;;;;;;;9.00;8.70;;;13.50;56.10;;;;;;4995316;28;20424;-75
2022/12/23 11:09:22;;;;;;;9.00;8.60;;;13.40;56.90;;;;;;5011585;28;20464;-75
2022/12/23 11:11:55;;;;;;;9.00;8.67;;;13.50;57.10;;;;;;5012843;28;20426;-75
2022/12/23 11:14:37;;;;;;;7.67;7.40;;;13.60;56.90;;;;;;5014992;28;20994;-75
2022/12/23 11:17:04;;;;;;;8.77;8.57;;;13.70;56.90;;;;;;5012594;28;20907;-75
2022/12/23 11:19:29;;;;;;;8.50;8.27;;;13.60;56.40;;;;;;5012685;28;20853;-75
2022/12/23 11:21:57;;;;;;;8.67;8.37;;;13.60;56.90;;;;;;4997582;28;20423;-75
2022/12/23 11:24:26;;;;;;;9.57;8.63;;;13.70;57.30;;;;;;5029505;28;20639;-74
2022/12/23 11:27:13;;;;;;;7.83;7.63;;;13.70;57.30;;;;;;5032524;28;20420;-75
2022/12/23 11:29:50;;;;;;;9.00;8.60;;;13.70;57.40;;;;;;5014375;28;20629;-75
2022/12/23 11:32:27;;;;;;;9.33;8.60;;;13.80;57.30;;;;;;5032128;28;20963;-75
2022/12/23 11:34:54;;;;;;;8.10;7.87;;;13.80;57.10;;;;;;5032220;28;20395;-75
2022/12/23 11:37:35;;;;;;;8.40;8.10;;;13.90;57.40;;;;;;5032341;28;20905;-75
2022/12/23 11:40:04;;;;;;;8.07;7.77;;;13.90;56.90;;;;;;5032204;28;20848;-75
2022/12/23 11:42:32;;;;;;;8.20;7.90;;;13.90;57.40;;;;;;5031822;28;20411;-74
2022/12/23 11:44:59;;;;;;;7.70;7.40;;;13.90;57.30;;;;;;5032169;28;20812;-75
2022/12/23 11:47:39;;;;;;;7.73;7.50;;;13.90;57.40;;;;;;5032069;28;20840;-75
2022/12/23 11:50:29;;;;;;;9.13;8.73;;;14.00;57.30;;;;;;5011692;28;20443;-75
2022/12/23 11:53:22;;;;;;;8.37;8.10;;;14.00;56.70;;;;;;5017822;28;20424;-75
2022/12/23 11:55:58;;;;;;;7.87;7.57;;;13.90;56.20;;;;;;5015095;28;20454;-75
2022/12/23 11:58:26;;;;;;;8.57;8.33;;;13.80;56.80;;;;;;5008400;28;20454;-74
2022/12/23 12:00:58;;;;;;;7.83;7.63;;;13.70;57.40;;;;;;5011395;28;20470;-75
2022/12/23 12:03:29;;;;;;;8.10;7.80;;;13.70;58.20;;;;;;5015842;28;20496;-75
2022/12/23 12:05:59;;;;;;;7.70;7.50;;;13.70;58.80;;;;;;5013670;28;20439;-75
2022/12/23 12:08:32;;;;;;;7.27;6.97;;;13.70;58.50;;;;;;4993641;28;20478;-75
2022/12/23 12:11:15;;;;;;;7.60;7.30;;;13.70;58.30;;;;;;5012679;28;20408;-74
2022/12/23 12:13:46;;;;;;;8.03;7.73;;;13.70;58.60;;;;;;5010794;28;20408;-74
2022/12/23 12:16:22;;;;;;;7.33;7.03;;;13.70;58.60;;;;;;5011171;28;20408;-74
2022/12/23 12:18:49;;;;;;;7.03;6.83;;;13.70;58.50;;;;;;4993332;28;20457;-74
2022/12/23 12:21:20;;;;;;;7.53;7.23;;;13.80;58.80;;;;;;5020590;28;20918;-74
2022/12/23 12:23:50;;;;;;;14.93;13.40;;;13.80;58.30;;;;;;5017247;28;20424;-74
2022/12/23 12:26:35;;;;;;;7.93;7.53;;;13.70;59.00;;;;;;5022934;28;20416;-74
2022/12/23 12:29:06;;;;;;;7.30;7.10;;;13.70;59.40;;;;;;5018026;28;20491;-75
2022/12/23 12:31:49;;;;;;;7.20;7.00;;;13.60;60.00;;;;;;5026076;28;20472;-75
2022/12/23 12:34:30;;;;;;;6.90;6.70;;;13.50;61.00;;;;;;5020430;28;20949;-74
2022/12/23 12:37:18;;;;;;;6.67;6.47;;;13.50;61.70;;;;;;5006267;28;20431;-75
2022/12/23 12:40:02;;;;;;;6.60;6.30;;;13.50;62.00;;;;;;5002617;28;20444;-76
2022/12/23 12:42:35;;;;;;;6.60;6.40;;;13.40;62.50;;;;;;4996383;28;20409;-76
2022/12/23 12:45:13;;;;;;;7.10;6.80;;;13.40;62.50;;;;;;4996941;28;20927;-75
2022/12/23 12:47:53;;;;;;;6.77;6.47;;;13.50;62.00;;;;;;4996880;28;20515;-75
2022/12/23 12:50:32;;;;;;;6.63;6.33;;;13.50;61.90;;;;;;5018495;28;20432;-74
2022/12/23 12:53:14;;;;;;;6.60;6.40;;;13.50;61.90;;;;;;5016056;28;20934;-76
2022/12/23 12:55:44;;;;;;;8.20;7.57;;;13.60;61.60;;;;;;4999614;28;20809;-76
2022/12/23 12:58:21;;;;;;;7.13;6.83;;;13.60;62.00;;;;;;5000389;28;20530;-76
2022/12/23 13:01:00;;;;;;;7.97;7.67;;;13.60;60.60;;;;;;4995689;28;20457;-75
2022/12/23 13:03:44;;;;;;;7.47;7.27;;;13.60;60.60;;;;;;5016524;28;20416;-75
2022/12/23 13:06:39;;;;;;;7.33;7.13;;;13.60;60.40;;;;;;5017082;28;20395;-75
2022/12/23 13:09:19;;;;;;;7.50;7.23;;;13.50;60.10;;;;;;5017793;28;20471;-75
2022/12/23 13:11:56;;;;;;;6.80;6.60;;;13.60;59.90;;;;;;5016961;28;20419;-75
2022/12/23 13:14:50;;;;;;;6.60;6.40;;;13.60;59.70;;;;;;4998684;28;20507;-75
2022/12/23 13:17:27;;;;;;;7.10;6.90;;;13.60;59.70;;;;;;5016839;28;20443;-75
2022/12/23 13:20:14;;;;;;;6.47;6.27;;;13.70;59.30;;;;;;5015603;28;20447;-75
2022/12/23 13:22:40;;;;;;;7.30;7.10;;;13.70;59.40;;;;;;5018892;28;20416;-75
2022/12/23 13:25:18;;;;;;;6.60;6.30;;;13.70;59.30;;;;;;5017203;28;20785;-75
2022/12/23 13:27:53;;;;;;;6.70;6.50;;;13.70;59.40;;;;;;5029415;28;20454;-75